TAF LEVD
LEVD 280800Z 2809/2909 27012KT CAVOK TX08/2814Z TN01/2809Z PROB40 TEMPO 2812/2824 27015G25KT PROB30 TEMPO 2819/2822 4000 RA BKN006 PROB40 TEMPO 2822/2909 BKN008 PROB30 TEMPO 2905/2909 0400 BCFG FG OVC001=
METAR LEVD
LEVD 280830Z 26009KT CAVOK M01/M03 Q1016=
LEVD 280800Z 26008KT CAVOK M02/M04 Q1016=
LEVD 280730Z 27008KT CAVOK M02/M04 Q1016=
LEVD 280700Z 26008KT CAVOK M03/M04 Q1015=
LEVD 280630Z 25008KT 9999 FEW028 M03/M04 Q1015=
WC LEVD
WS LEVD
WV LEVD